Green Pond, New Jersey
Current Conditions -  °F | °C
As of 7:53 AM on Thursday 23 Oct 2014 (Local Time) from KFWN Reporting Station
Light Rain Light Rain  
Wind Chill: 52°   Ceiling: 3400
Heat Index: 52°   Visibility: 10mi
Dew Point: 47°   Wind: 5mph
Humidity: 83%   Direction: NA
Pressure: 29.75"   Gusts: NA
Location:  41.058°N, 74.4257°W
Report Text: KFWN 231153Z AUTO VRB04KT 10SM -RA OVC034 11/08 A2975 RMK AO2 SLP075 P0003 60015 70056 T01110083 10117 20106 58002
Loading
Personal Weather Stations






























Interactive Weather Map
Tropical Storm Tracking
New forecast layout! Learn more

10-Day Weather Forecast

Advertisements
Track Severe Weather on mobile